Time;durP1;ratioP1;P1;durP2;ratioP2;P2;SDS_P1;SDS_P2;PMS_P1;PMS_P2;Temp;Humidity;BMP_temperature;BMP_pressure;BME280_temperature;BME280_humidity;BME280_pressure;Samples;Min_cycle;Max_cycle;Signal;HPM_P1;HPM_P2
2021/01/07 00:00:32;;;;;;;13.18;6.07;;;1.20;94.10;;;;;;5027249;28;20033;-90
2021/01/07 00:02:57;;;;;;;14.05;5.85;;;1.20;94.10;;;;;;5026082;28;20049;-91
2021/01/07 00:05:23;;;;;;;12.18;5.78;;;1.20;94.10;;;;;;5020618;28;20070;-91
2021/01/07 00:07:48;;;;;;;12.90;5.40;;;1.20;94.10;;;;;;5025103;28;20021;-90
2021/01/07 00:10:14;;;;;;;13.65;6.05;;;1.20;94.10;;;;;;5029290;28;20060;-90
2021/01/07 00:12:40;;;;;;;15.00;6.47;;;1.10;94.10;;;;;;5024309;28;20038;-91
2021/01/07 00:15:06;;;;;;;12.35;6.30;;;1.20;94.10;;;;;;5024774;28;20045;-90
2021/01/07 00:17:31;;;;;;;12.52;5.53;;;1.20;94.20;;;;;;5029945;28;20493;-90
2021/01/07 00:19:57;;;;;;;9.98;6.00;;;1.20;94.20;;;;;;5025336;28;20018;-91
2021/01/07 00:22:22;;;;;;;12.90;5.88;;;1.20;94.10;;;;;;5024083;28;20033;-91
2021/01/07 00:24:48;;;;;;;19.05;6.03;;;1.20;94.10;;;;;;5025456;28;20025;-91
2021/01/07 00:27:13;;;;;;;12.32;5.07;;;1.20;94.10;;;;;;5027489;28;20428;-91
2021/01/07 00:29:39;;;;;;;13.30;6.38;;;1.10;94.10;;;;;;5025326;28;20339;-90
2021/01/07 00:32:05;;;;;;;14.55;6.70;;;1.20;94.10;;;;;;5021432;28;20052;-90
2021/01/07 00:34:30;;;;;;;13.45;6.32;;;1.20;94.10;;;;;;5026533;28;20100;-90
2021/01/07 00:36:57;;;;;;;9.93;5.55;;;1.20;94.20;;;;;;5024787;28;20460;-91
2021/01/07 00:39:23;;;;;;;15.98;6.60;;;1.20;94.20;;;;;;5025774;28;20026;-88
2021/01/07 00:41:58;;;;;;;10.82;5.60;;;1.20;94.20;;;;;;5021068;28;20364;-89
2021/01/07 00:44:25;;;;;;;9.75;5.20;;;1.20;94.10;;;;;;5043374;28;20078;-90
2021/01/07 00:46:54;;;;;;;14.60;4.85;;;1.20;94.10;;;;;;5025020;28;20030;-89
2021/01/07 00:49:20;;;;;;;12.32;5.55;;;1.20;94.10;;;;;;5032327;28;20022;-92
2021/01/07 00:51:46;;;;;;;13.88;5.22;;;1.20;94.20;;;;;;5028238;28;20033;-89
2021/01/07 00:54:11;;;;;;;10.80;5.50;;;1.20;94.20;;;;;;5043956;28;20033;-90
2021/01/07 00:56:38;;;;;;;9.80;4.63;;;1.20;94.20;;;;;;5027053;28;20026;-91
2021/01/07 00:59:07;;;;;;;13.55;5.88;;;1.20;94.20;;;;;;5024235;28;20417;-89
2021/01/07 01:01:42;;;;;;;14.23;5.00;;;1.20;94.20;;;;;;5028392;28;20037;-90
2021/01/07 01:04:07;;;;;;;10.13;5.03;;;1.10;94.20;;;;;;5026047;28;20017;-89
2021/01/07 01:06:33;;;;;;;10.75;5.22;;;1.10;94.20;;;;;;5022040;28;20088;-89
2021/01/07 01:08:59;;;;;;;9.50;5.50;;;1.10;94.20;;;;;;5025422;28;20026;-90
2021/01/07 01:11:24;;;;;;;10.30;4.80;;;1.10;94.20;;;;;;5028463;28;20508;-89
2021/01/07 01:13:50;;;;;;;12.30;5.18;;;1.10;94.30;;;;;;5029751;28;20033;-90
2021/01/07 01:16:17;;;;;;;8.27;4.47;;;1.10;94.30;;;;;;5027158;28;20017;-89
2021/01/07 01:18:42;;;;;;;9.43;4.75;;;1.10;94.30;;;;;;5025542;28;20095;-90
2021/01/07 01:21:08;;;;;;;11.95;5.00;;;1.20;94.40;;;;;;5023016;28;20038;-90
2021/01/07 01:23:33;;;;;;;11.07;5.00;;;1.10;94.30;;;;;;5024832;28;20033;-90
2021/01/07 01:25:59;;;;;;;12.77;5.18;;;1.10;94.30;;;;;;5025119;28;20033;-90
2021/01/07 01:28:26;;;;;;;11.27;4.75;;;1.20;94.30;;;;;;5020985;28;20112;-89
2021/01/07 01:30:51;;;;;;;10.18;3.95;;;1.10;94.30;;;;;;5023826;28;20025;-89
2021/01/07 01:33:17;;;;;;;7.53;4.55;;;1.10;94.30;;;;;;5024457;28;20013;-90
2021/01/07 01:35:43;;;;;;;10.30;5.10;;;1.10;94.30;;;;;;5026563;28;20496;-89
2021/01/07 01:38:08;;;;;;;9.98;4.75;;;1.10;94.30;;;;;;5024540;28;20390;-89
2021/01/07 01:40:34;;;;;;;12.27;5.13;;;1.00;94.30;;;;;;5029430;28;20108;-89
2021/01/07 01:42:59;;;;;;;13.10;5.40;;;1.00;94.40;;;;;;5026409;28;20067;-90
2021/01/07 01:45:25;;;;;;;9.98;4.75;;;1.00;94.40;;;;;;5028833;28;20481;-90
2021/01/07 01:47:50;;;;;;;13.73;5.60;;;1.00;94.40;;;;;;5027116;28;20037;-89
2021/01/07 01:50:16;;;;;;;10.27;5.82;;;1.00;94.40;;;;;;5029334;28;20393;-89
2021/01/07 01:52:41;;;;;;;13.75;6.20;;;0.90;94.40;;;;;;5028622;28;20160;-90
2021/01/07 01:55:08;;;;;;;13.57;6.28;;;1.00;94.80;;;;;;5028875;28;20039;-90
2021/01/07 01:57:34;;;;;;;11.45;5.72;;;0.90;94.50;;;;;;5027380;28;20547;-89
2021/01/07 01:59:59;;;;;;;12.25;5.85;;;0.90;94.50;;;;;;5026753;28;20107;-89
2021/01/07 02:02:26;;;;;;;13.18;6.07;;;0.90;94.50;;;;;;5028790;28;20060;-89
2021/01/07 02:04:51;;;;;;;12.07;5.22;;;0.90;94.60;;;;;;5030160;28;20386;-89
2021/01/07 02:07:22;;;;;;;12.52;6.22;;;0.90;94.60;;;;;;5030946;28;20031;-89
2021/01/07 02:09:48;;;;;;;10.43;5.32;;;1.00;94.60;;;;;;5029610;28;20386;-89
2021/01/07 02:12:14;;;;;;;9.90;5.30;;;1.00;94.70;;;;;;5026842;28;20389;-89
2021/01/07 02:14:44;;;;;;;15.10;6.60;;;1.00;94.70;;;;;;5027766;28;20018;-90
2021/01/07 02:17:10;;;;;;;17.08;6.25;;;1.00;94.70;;;;;;5028839;28;20541;-89
2021/01/07 02:19:35;;;;;;;9.93;5.60;;;1.00;94.70;;;;;;5030929;28;20034;-90
2021/01/07 02:22:01;;;;;;;10.75;5.25;;;1.00;94.70;;;;;;5027185;28;20037;-89
2021/01/07 02:24:28;;;;;;;12.85;5.43;;;1.10;94.70;;;;;;5028199;28;20033;-89
2021/01/07 02:26:58;;;;;;;13.20;5.35;;;1.00;94.60;;;;;;5029743;28;20030;-89
2021/01/07 02:29:23;;;;;;;9.40;5.10;;;1.00;94.60;;;;;;5032117;28;20034;-89
2021/01/07 02:31:49;;;;;;;10.48;4.47;;;1.00;94.60;;;;;;5024165;28;20018;-90
2021/01/07 02:34:15;;;;;;;10.93;5.55;;;1.00;94.60;;;;;;5030325;28;20056;-89
2021/01/07 02:36:40;;;;;;;9.48;4.70;;;1.00;94.60;;;;;;5028041;28;20092;-89
2021/01/07 02:39:06;;;;;;;11.88;5.10;;;1.00;94.60;;;;;;5027256;28;20065;-90
2021/01/07 02:41:31;;;;;;;12.35;5.30;;;0.90;94.60;;;;;;5024567;28;20046;-90
2021/01/07 02:43:57;;;;;;;12.43;5.57;;;0.90;94.60;;;;;;5028501;28;20025;-88
2021/01/07 02:46:22;;;;;;;8.95;4.68;;;0.80;94.60;;;;;;5023484;28;20114;-89
2021/01/07 02:48:48;;;;;;;8.38;4.63;;;0.80;94.70;;;;;;5031505;28;20030;-89
2021/01/07 02:51:13;;;;;;;8.70;4.57;;;0.80;95.00;;;;;;5027420;28;20099;-90
2021/01/07 02:53:39;;;;;;;9.70;4.85;;;0.80;94.70;;;;;;5022080;28;20026;-89
2021/01/07 02:56:05;;;;;;;10.18;4.80;;;0.70;94.70;;;;;;5024291;28;20543;-90
2021/01/07 02:58:30;;;;;;;9.52;5.22;;;0.70;95.00;;;;;;5023659;28;20046;-88
2021/01/07 03:00:56;;;;;;;8.43;4.55;;;0.70;94.80;;;;;;5033248;28;20025;-89
2021/01/07 03:03:21;;;;;;;13.43;5.70;;;0.70;94.80;;;;;;5029490;28;20057;-89
2021/01/07 03:05:46;;;;;;;9.98;4.85;;;0.60;94.80;;;;;;5028976;28;20022;-91
2021/01/07 03:08:12;;;;;;;8.45;5.15;;;0.70;94.90;;;;;;5024329;28;20033;-89
2021/01/07 03:10:37;;;;;;;11.02;5.43;;;0.70;94.90;;;;;;5024590;28;20021;-89
2021/01/07 03:13:03;;;;;;;12.35;5.35;;;0.70;95.20;;;;;;5034187;28;20034;-89
2021/01/07 03:15:28;;;;;;;11.32;5.47;;;0.70;95.00;;;;;;5026932;28;20029;-90
2021/01/07 03:17:54;;;;;;;17.38;5.65;;;0.70;95.00;;;;;;5027767;28;20382;-89
2021/01/07 03:20:19;;;;;;;8.95;4.93;;;0.60;95.00;;;;;;5030182;28;20033;-89
2021/01/07 03:22:45;;;;;;;12.35;5.82;;;0.60;95.00;;;;;;5028515;28;20565;-89
2021/01/07 03:25:11;;;;;;;10.57;4.95;;;0.70;95.00;;;;;;5029592;28;20536;-90
2021/01/07 03:27:37;;;;;;;11.43;5.78;;;0.70;95.10;;;;;;5026020;28;20041;-90
2021/01/07 03:30:06;;;;;;;8.38;4.55;;;0.70;95.10;;;;;;5027190;28;20523;-90
2021/01/07 03:32:32;;;;;;;13.98;6.45;;;0.70;95.20;;;;;;5028058;28;20068;-89
2021/01/07 03:34:58;;;;;;;10.88;5.15;;;0.70;95.10;;;;;;5027065;28;20069;-90
2021/01/07 03:37:23;;;;;;;12.70;6.10;;;0.80;95.20;;;;;;5027023;28;20066;-90
2021/01/07 03:39:49;;;;;;;11.43;5.82;;;0.80;95.20;;;;;;5026635;28;21391;-90
2021/01/07 03:42:14;;;;;;;9.73;5.32;;;0.80;95.10;;;;;;5028602;28;20032;-89
2021/01/07 03:44:40;;;;;;;14.40;5.72;;;0.90;95.20;;;;;;5026340;28;20470;-89
2021/01/07 03:47:05;;;;;;;11.43;5.38;;;0.90;95.20;;;;;;5026369;28;20037;-90
2021/01/07 03:49:31;;;;;;;12.75;5.88;;;0.90;95.10;;;;;;5027300;28;20077;-90
2021/01/07 03:51:56;;;;;;;8.85;4.93;;;0.90;95.10;;;;;;5025722;28;20033;-89
2021/01/07 03:54:22;;;;;;;9.38;5.30;;;1.00;95.20;;;;;;5026244;28;20033;-89
2021/01/07 03:56:47;;;;;;;11.45;5.55;;;1.00;95.10;;;;;;5025154;28;20033;-89
2021/01/07 03:59:13;;;;;;;12.10;6.07;;;1.00;95.20;;;;;;5042748;28;20068;-90
2021/01/07 04:01:38;;;;;;;11.75;5.70;;;1.00;95.10;;;;;;5025193;28;20030;-89
2021/01/07 04:04:04;;;;;;;9.52;4.95;;;1.10;95.20;;;;;;5025351;28;20083;-89
2021/01/07 04:06:29;;;;;;;12.77;4.88;;;1.10;95.20;;;;;;5023101;28;20057;-91
2021/01/07 04:08:55;;;;;;;11.35;5.25;;;1.10;95.20;;;;;;5030868;28;20051;-90
2021/01/07 04:11:20;;;;;;;9.85;4.82;;;1.10;95.20;;;;;;5026059;28;20396;-89
2021/01/07 04:13:46;;;;;;;12.43;5.13;;;1.20;95.20;;;;;;5030613;28;20032;-90
2021/01/07 04:16:12;;;;;;;11.20;5.53;;;1.20;95.20;;;;;;5027040;28;20112;-88
2021/01/07 04:18:38;;;;;;;10.13;5.32;;;1.30;95.20;;;;;;5026670;28;20068;-90
2021/01/07 04:21:04;;;;;;;9.52;4.68;;;1.30;95.20;;;;;;5023917;28;20057;-90
2021/01/07 04:23:29;;;;;;;12.80;6.07;;;1.40;95.50;;;;;;5021924;28;20480;-89
2021/01/07 04:25:55;;;;;;;11.32;5.47;;;1.40;95.20;;;;;;5025064;28;20042;-89
2021/01/07 04:28:20;;;;;;;13.38;6.22;;;1.40;95.40;;;;;;5028342;28;20091;-89
2021/01/07 04:30:46;;;;;;;11.25;5.97;;;1.40;95.20;;;;;;5027683;28;20477;-88
2021/01/07 04:33:12;;;;;;;11.43;6.18;;;1.40;95.20;;;;;;5025736;28;20425;-88
2021/01/07 04:35:37;;;;;;;10.75;6.80;;;1.50;95.20;;;;;;5029014;28;20030;-88
2021/01/07 04:38:03;;;;;;;13.00;5.70;;;1.50;95.20;;;;;;5025465;28;20053;-89
2021/01/07 04:40:29;;;;;;;12.93;6.82;;;1.50;95.20;;;;;;5026634;28;20036;-90
2021/01/07 04:42:55;;;;;;;15.38;7.25;;;1.50;95.10;;;;;;5028498;28;20037;-89
2021/01/07 04:45:20;;;;;;;11.70;6.05;;;1.50;95.10;;;;;;5022873;28;20030;-89
2021/01/07 04:47:50;;;;;;;15.50;7.20;;;1.50;95.10;;;;;;5025598;28;20053;-89
2021/01/07 04:50:16;;;;;;;13.13;7.22;;;1.50;95.10;;;;;;5021868;28;20144;-89
2021/01/07 04:52:41;;;;;;;11.60;6.57;;;1.60;95.10;;;;;;5029299;28;20485;-90
2021/01/07 04:55:09;;;;;;;11.77;6.13;;;1.60;95.10;;;;;;5024030;28;20025;-89
2021/01/07 04:57:35;;;;;;;13.48;7.07;;;1.60;95.10;;;;;;5026930;28;20040;-91
2021/01/07 05:00:03;;;;;;;12.63;5.85;;;1.60;95.10;;;;;;5024133;28;20484;-89
2021/01/07 05:02:29;;;;;;;12.25;6.65;;;1.60;95.10;;;;;;5024169;28;20037;-90
2021/01/07 05:04:54;;;;;;;16.75;6.97;;;1.60;95.10;;;;;;5027618;28;20029;-89
2021/01/07 05:07:21;;;;;;;14.60;7.90;;;1.60;95.10;;;;;;5026538;28;20029;-89
2021/01/07 05:09:58;;;;;;;15.70;8.00;;;1.60;95.00;;;;;;5022674;28;20025;-89
2021/01/07 05:12:23;;;;;;;13.52;7.30;;;1.70;95.10;;;;;;5027779;28;20051;-89
2021/01/07 05:14:49;;;;;;;15.65;8.48;;;1.60;95.00;;;;;;5024296;28;20021;-89
2021/01/07 05:17:16;;;;;;;17.45;8.90;;;1.60;95.00;;;;;;5030837;28;20034;-90
2021/01/07 05:19:41;;;;;;;15.40;8.55;;;1.70;95.10;;;;;;5023843;28;20029;-88
2021/01/07 05:22:08;;;;;;;15.35;8.48;;;1.70;95.10;;;;;;5030887;28;20056;-89
2021/01/07 05:24:34;;;;;;;17.75;7.80;;;1.60;95.00;;;;;;5028166;28;20057;-89
2021/01/07 05:27:17;;;;;;;19.15;9.27;;;1.70;95.10;;;;;;5027603;28;20037;-89
2021/01/07 05:29:43;;;;;;;17.20;9.30;;;1.70;95.10;;;;;;5030473;28;20120;-89
2021/01/07 05:32:11;;;;;;;21.63;9.15;;;1.70;95.10;;;;;;5027548;28;20109;-88
2021/01/07 05:34:50;;;;;;;18.30;9.75;;;1.70;95.10;;;;;;5027538;28;20022;-89
2021/01/07 05:37:20;;;;;;;18.98;9.13;;;1.70;95.10;;;;;;5041422;28;20363;-88
2021/01/07 05:39:47;;;;;;;21.00;9.38;;;1.70;95.00;;;;;;5032342;28;20037;-88
2021/01/07 05:42:13;;;;;;;19.33;9.20;;;1.70;95.10;;;;;;5026225;28;20091;-89
2021/01/07 05:44:45;;;;;;;19.83;9.73;;;1.70;95.10;;;;;;5026077;28;20104;-89
2021/01/07 05:47:22;;;;;;;18.92;9.70;;;1.70;95.10;;;;;;5031677;28;20037;-89
2021/01/07 05:49:48;;;;;;;22.23;9.40;;;1.70;95.10;;;;;;5027049;28;20315;-88
2021/01/07 05:52:14;;;;;;;21.05;9.88;;;1.70;95.10;;;;;;5030323;28;20052;-89
2021/01/07 05:54:43;;;;;;;20.17;10.25;;;1.70;95.10;;;;;;5029162;28;20056;-89
2021/01/07 05:57:11;;;;;;;20.98;10.40;;;1.70;95.40;;;;;;5031932;28;20030;-88
2021/01/07 05:59:40;;;;;;;24.20;10.70;;;1.70;95.10;;;;;;5029943;28;20045;-88
2021/01/07 06:02:08;;;;;;;20.95;10.30;;;1.70;95.20;;;;;;5032398;28;20038;-89
2021/01/07 06:04:34;;;;;;;22.02;9.80;;;1.70;95.10;;;;;;5029341;28;20113;-88
2021/01/07 06:07:00;;;;;;;24.67;9.70;;;1.70;95.10;;;;;;5025959;28;20040;-88
2021/01/07 06:09:30;;;;;;;18.73;9.00;;;1.80;95.10;;;;;;5028123;28;20021;-88
2021/01/07 06:11:59;;;;;;;17.02;9.15;;;1.80;95.10;;;;;;5031972;28;20026;-88
2021/01/07 06:14:26;;;;;;;18.48;9.10;;;1.70;95.10;;;;;;5027766;28;20034;-88
2021/01/07 06:16:56;;;;;;;22.55;8.57;;;1.80;95.20;;;;;;5044803;28;20033;-88
2021/01/07 06:19:39;;;;;;;20.10;8.50;;;1.80;95.20;;;;;;5048312;28;20021;-89
2021/01/07 06:22:14;;;;;;;17.17;7.47;;;1.80;95.20;;;;;;5028490;28;20036;-88
2021/01/07 06:24:40;;;;;;;15.75;7.72;;;1.80;95.10;;;;;;5035888;28;20082;-88
2021/01/07 06:27:25;;;;;;;16.90;7.32;;;1.80;95.20;;;;;;5031056;28;20057;-88
2021/01/07 06:30:02;;;;;;;13.73;6.35;;;1.80;95.10;;;;;;5045135;28;20113;-88
2021/01/07 06:32:29;;;;;;;14.05;6.68;;;1.80;95.10;;;;;;5033701;28;20110;-87
2021/01/07 06:34:56;;;;;;;11.45;5.43;;;1.80;95.10;;;;;;5048629;28;20025;-88
2021/01/07 06:37:32;;;;;;;13.80;6.03;;;1.80;95.20;;;;;;5025793;28;20026;-89
2021/01/07 06:39:59;;;;;;;17.00;6.55;;;1.80;95.20;;;;;;5026839;28;20498;-88
2021/01/07 06:42:24;;;;;;;11.27;4.97;;;1.80;95.20;;;;;;5027288;28;20057;-88
2021/01/07 06:44:52;;;;;;;11.73;4.72;;;1.80;95.20;;;;;;5029718;28;20052;-89
2021/01/07 06:47:20;;;;;;;12.07;5.25;;;1.90;95.20;;;;;;5029247;28;20022;-88
2021/01/07 06:49:48;;;;;;;12.88;5.57;;;1.90;95.20;;;;;;5029178;28;20029;-89
2021/01/07 06:52:13;;;;;;;11.68;5.20;;;1.90;95.20;;;;;;5028206;28;20025;-89
2021/01/07 06:54:52;;;;;;;14.18;5.38;;;1.90;95.20;;;;;;5021718;28;20036;-90
2021/01/07 06:57:18;;;;;;;11.40;4.63;;;1.90;95.50;;;;;;5027883;28;20945;-89
2021/01/07 07:00:13;;;;;;;10.85;5.13;;;2.00;95.30;;;;;;5027751;28;20116;-88
2021/01/07 07:02:39;;;;;;;13.93;4.90;;;2.00;95.20;;;;;;5023532;28;20049;-88
2021/01/07 07:05:09;;;;;;;12.68;4.75;;;2.00;95.20;;;;;;5027566;28;20120;-88
2021/01/07 07:08:08;;;;;;;12.65;4.82;;;2.00;95.20;;;;;;5027364;28;20224;-90
2021/01/07 07:10:33;;;;;;;15.57;5.47;;;2.00;95.20;;;;;;5034230;28;20116;-89
2021/01/07 07:13:19;;;;;;;17.00;8.20;;;2.00;95.30;;;;;;5028023;28;20112;-90
2021/01/07 07:15:48;;;;;;;19.95;9.35;;;2.10;95.30;;;;;;5027021;28;20370;-89
2021/01/07 07:18:25;;;;;;;22.85;10.20;;;2.10;95.30;;;;;;5032115;28;20018;-88
2021/01/07 07:20:50;;;;;;;23.30;10.82;;;2.10;95.20;;;;;;5030705;28;20374;-88
2021/01/07 07:23:19;;;;;;;19.10;10.02;;;2.10;95.20;;;;;;5030515;28;20026;-88
2021/01/07 07:25:53;;;;;;;22.23;11.52;;;2.10;95.30;;;;;;5019747;28;20044;-89
2021/01/07 07:28:22;;;;;;;19.83;9.60;;;2.10;95.30;;;;;;5034187;28;20025;-88
2021/01/07 07:30:47;;;;;;;26.20;12.02;;;2.10;95.30;;;;;;5033453;28;20403;-88
2021/01/07 07:33:31;;;;;;;17.83;10.25;;;2.20;95.30;;;;;;5032837;28;20021;-89
2021/01/07 07:35:57;;;;;;;22.88;12.52;;;2.20;95.30;;;;;;5026997;28;20095;-89
2021/01/07 07:38:30;;;;;;;28.50;13.45;;;2.10;95.30;;;;;;5045666;28;20112;-88
2021/01/07 07:41:03;;;;;;;27.67;13.30;;;2.20;95.30;;;;;;5024354;28;20113;-89
2021/01/07 07:43:30;;;;;;;22.55;12.30;;;2.20;95.30;;;;;;5032280;28;20073;-88
2021/01/07 07:45:56;;;;;;;22.58;11.35;;;2.20;95.30;;;;;;5032433;28;20044;-88
2021/01/07 07:48:25;;;;;;;27.33;13.95;;;2.20;95.30;;;;;;5029835;28;20025;-89
2021/01/07 07:50:51;;;;;;;23.85;11.98;;;2.20;95.30;;;;;;5023392;28;20054;-90
2021/01/07 07:53:17;;;;;;;23.60;12.05;;;2.20;95.30;;;;;;5032552;28;20112;-90
2021/01/07 07:55:43;;;;;;;20.08;10.68;;;2.20;95.30;;;;;;5031332;28;20057;-89
2021/01/07 07:58:18;;;;;;;25.90;12.20;;;2.20;95.30;;;;;;5028678;28;20486;-90
2021/01/07 08:00:57;;;;;;;20.60;10.80;;;2.20;95.30;;;;;;5028209;28;20429;-89
2021/01/07 08:03:28;;;;;;;21.52;10.73;;;2.20;95.30;;;;;;5051798;28;20477;-88
2021/01/07 08:05:58;;;;;;;19.08;9.35;;;2.20;95.40;;;;;;5039063;28;20025;-88
2021/01/07 08:08:26;;;;;;;21.55;10.77;;;2.30;95.40;;;;;;5033483;28;20081;-89
2021/01/07 08:10:53;;;;;;;21.08;10.48;;;2.30;95.30;;;;;;5033928;28;20368;-88
2021/01/07 08:13:20;;;;;;;23.60;11.45;;;2.30;95.30;;;;;;5033002;28;20028;-88
2021/01/07 08:15:51;;;;;;;19.67;10.05;;;2.30;95.40;;;;;;5034068;28;20071;-89
2021/01/07 08:18:21;;;;;;;23.65;11.40;;;2.40;95.40;;;;;;5028786;28;20556;-89
2021/01/07 08:20:49;;;;;;;23.70;11.07;;;2.40;95.40;;;;;;5032150;28;20485;-89
2021/01/07 08:23:16;;;;;;;21.10;11.02;;;2.40;95.40;;;;;;5030814;28;20029;-89
2021/01/07 08:25:45;;;;;;;24.83;11.43;;;2.40;95.40;;;;;;5033422;28;20446;-89
2021/01/07 08:28:19;;;;;;;28.20;12.25;;;2.40;95.40;;;;;;5032030;28;20036;-90
2021/01/07 08:31:13;;;;;;;31.90;12.57;;;2.40;95.30;;;;;;5045569;28;20029;-90
2021/01/07 08:33:39;;;;;;;25.85;11.52;;;2.50;95.40;;;;;;5025231;28;20036;-89
2021/01/07 08:36:09;;;;;;;26.27;10.25;;;2.50;95.70;;;;;;5032607;28;20017;-88
2021/01/07 08:38:36;;;;;;;20.13;9.52;;;2.50;95.40;;;;;;5032366;28;20021;-90
2021/01/07 08:41:22;;;;;;;20.25;10.85;;;2.50;95.30;;;;;;5028536;28;20034;-89
2021/01/07 08:43:50;;;;;;;18.30;9.52;;;2.50;95.30;;;;;;5027747;28;20021;-88
2021/01/07 08:46:24;;;;;;;16.70;7.68;;;2.50;95.40;;;;;;5035117;28;20119;-90
2021/01/07 08:49:01;;;;;;;17.17;9.05;;;2.60;95.30;;;;;;5030900;28;20558;-90
2021/01/07 08:51:28;;;;;;;17.67;9.30;;;2.60;95.30;;;;;;5029483;28;20026;-89
2021/01/07 08:53:55;;;;;;;17.60;9.57;;;2.60;95.40;;;;;;5034272;28;20037;-89
2021/01/07 08:56:37;;;;;;;16.27;8.10;;;2.60;95.40;;;;;;5025055;28;20088;-90
2021/01/07 08:59:20;;;;;;;16.85;9.15;;;2.60;95.30;;;;;;5036466;28;20136;-90
2021/01/07 09:01:51;;;;;;;18.08;9.30;;;2.60;95.30;;;;;;5034357;28;20042;-90
2021/01/07 09:04:33;;;;;;;17.75;9.45;;;2.60;95.30;;;;;;5032019;28;20045;-90
2021/01/07 09:07:15;;;;;;;15.00;8.07;;;2.60;95.30;;;;;;5032672;28;20128;-89
2021/01/07 09:09:44;;;;;;;15.20;8.18;;;2.70;95.30;;;;;;5028165;28;20385;-89
2021/01/07 09:12:10;;;;;;;15.52;8.50;;;2.70;95.30;;;;;;5030090;28;20025;-88
2021/01/07 09:15:20;;;;;;;13.10;6.95;;;2.70;95.30;;;;;;5027588;28;20028;-89
2021/01/07 09:17:52;;;;;;;13.50;7.63;;;2.70;95.30;;;;;;5027172;28;20029;-89
2021/01/07 09:20:22;;;;;;;14.20;8.00;;;2.80;95.40;;;;;;5017235;28;20026;-88
2021/01/07 09:22:49;;;;;;;14.65;8.07;;;2.70;95.30;;;;;;5032725;28;20040;-89
2021/01/07 09:25:19;;;;;;;16.00;8.05;;;2.80;95.60;;;;;;5032119;28;20025;-89
2021/01/07 09:27:46;;;;;;;13.23;7.78;;;2.80;95.30;;;;;;5031896;28;20071;-89
2021/01/07 09:30:13;;;;;;;12.23;7.03;;;2.80;95.20;;;;;;5026225;28;20030;-88
2021/01/07 09:32:38;;;;;;;12.93;6.97;;;2.80;95.30;;;;;;5028621;28;20121;-88
2021/01/07 09:35:05;;;;;;;11.70;6.40;;;2.80;95.30;;;;;;5032195;28;20037;-88
2021/01/07 09:37:34;;;;;;;10.25;6.43;;;2.80;95.30;;;;;;5029382;28;20033;-88
2021/01/07 09:39:59;;;;;;;10.50;6.60;;;2.90;95.30;;;;;;5031454;28;20022;-89
2021/01/07 09:42:29;;;;;;;10.13;6.47;;;2.90;95.20;;;;;;5032457;28;20036;-89
2021/01/07 09:44:55;;;;;;;10.48;5.65;;;2.90;95.10;;;;;;5032082;28;20129;-89
2021/01/07 09:47:20;;;;;;;7.15;5.50;;;2.90;95.20;;;;;;5032938;28;20509;-89
2021/01/07 09:49:46;;;;;;;8.32;5.05;;;2.90;95.10;;;;;;5028787;28;20068;-88
2021/01/07 09:52:12;;;;;;;11.85;6.82;;;2.90;95.10;;;;;;5030671;28;20021;-86
2021/01/07 09:54:38;;;;;;;11.07;5.75;;;2.90;95.10;;;;;;5027742;28;20133;-88
2021/01/07 09:57:05;;;;;;;9.57;6.78;;;2.80;95.10;;;;;;5030345;28;20033;-88
2021/01/07 09:59:30;;;;;;;12.82;7.70;;;2.90;95.10;;;;;;5032431;28;20045;-87
2021/01/07 10:01:58;;;;;;;14.50;9.10;;;2.90;95.20;;;;;;5029543;28;20034;-88
2021/01/07 10:04:24;;;;;;;14.05;9.40;;;2.90;95.20;;;;;;5035229;28;20112;-88
2021/01/07 10:06:50;;;;;;;12.70;8.07;;;3.00;95.20;;;;;;5027712;28;20072;-88
2021/01/07 10:09:17;;;;;;;14.55;9.35;;;3.00;95.10;;;;;;5024494;28;20030;-90
2021/01/07 10:11:42;;;;;;;17.50;9.27;;;3.00;95.10;;;;;;5042081;28;20057;-90
2021/01/07 10:14:08;;;;;;;13.88;8.73;;;3.00;95.10;;;;;;5026501;28;20033;-89
2021/01/07 10:16:34;;;;;;;10.25;7.13;;;3.00;95.10;;;;;;5040391;28;20152;-88
2021/01/07 10:19:00;;;;;;;10.07;6.50;;;3.00;95.20;;;;;;5034220;28;20481;-88
2021/01/07 10:21:29;;;;;;;9.45;6.30;;;3.00;95.20;;;;;;5036521;28;20119;-88
2021/01/07 10:23:55;;;;;;;9.45;6.15;;;3.10;95.20;;;;;;5033817;28;20018;-89
2021/01/07 10:26:21;;;;;;;11.45;6.13;;;3.10;95.50;;;;;;5032055;28;21650;-88
2021/01/07 10:28:48;;;;;;;10.82;6.40;;;3.20;95.20;;;;;;5035410;28;20445;-88
2021/01/07 10:31:18;;;;;;;9.27;6.18;;;3.20;95.20;;;;;;5024716;28;20495;-88
2021/01/07 10:33:45;;;;;;;7.82;5.30;;;3.30;95.30;;;;;;5024289;28;20390;-88
2021/01/07 10:36:13;;;;;;;7.60;4.65;;;3.30;95.00;;;;;;5029743;28;20061;-89
2021/01/07 10:38:40;;;;;;;6.57;4.07;;;3.30;94.90;;;;;;5023386;28;20033;-88
2021/01/07 10:41:07;;;;;;;6.15;3.75;;;3.30;94.90;;;;;;5028015;28;20037;-88
2021/01/07 10:43:33;;;;;;;6.78;4.80;;;3.20;95.00;;;;;;5034814;28;20026;-88
2021/01/07 10:45:59;;;;;;;6.82;3.90;;;3.30;95.00;;;;;;5032702;28;20022;-88
2021/01/07 10:48:26;;;;;;;10.35;5.20;;;3.30;95.00;;;;;;5029382;28;20034;-88
2021/01/07 10:50:53;;;;;;;8.23;5.13;;;3.40;95.00;;;;;;5026451;28;20375;-88
2021/01/07 10:53:43;;;;;;;7.07;4.80;;;3.40;94.90;;;;;;5046220;28;20067;-88
2021/01/07 10:56:25;;;;;;;8.13;4.20;;;3.40;94.90;;;;;;5026540;28;20474;-88
2021/01/07 10:59:24;;;;;;;6.53;3.90;;;3.40;94.90;;;;;;5046922;28;20050;-89
2021/01/07 11:02:15;;;;;;;4.80;2.75;;;3.40;95.00;;;;;;5016224;28;20113;-88
2021/01/07 11:05:00;;;;;;;8.48;3.42;;;3.40;94.90;;;;;;5016289;28;20030;-89
2021/01/07 11:07:29;;;;;;;5.68;2.60;;;3.50;94.90;;;;;;5031863;28;20490;-89
2021/01/07 11:10:02;;;;;;;3.40;2.15;;;3.50;94.90;;;;;;5034138;28;20444;-89
2021/01/07 11:12:30;;;;;;;;;;;3.40;94.90;;;;;;5034249;28;20025;-89
2021/01/07 11:15:03;;;;;;;4.75;2.42;;;3.40;94.80;;;;;;5032154;28;19905;-88
2021/01/07 11:17:32;;;;;;;5.10;2.63;;;3.40;94.90;;;;;;5033162;28;20018;-88
2021/01/07 11:20:02;;;;;;;4.18;2.95;;;3.40;94.90;;;;;;5030951;28;20026;-88
2021/01/07 11:22:33;;;;;;;7.57;3.47;;;3.40;94.90;;;;;;5035592;28;20033;-88
2021/01/07 11:25:00;;;;;;;5.78;4.07;;;3.40;94.90;;;;;;5034382;28;20025;-89
2021/01/07 11:27:26;;;;;;;4.50;3.80;;;3.40;94.90;;;;;;5036638;28;20029;-88
2021/01/07 11:29:53;;;;;;;6.05;4.32;;;3.40;94.90;;;;;;5028566;28;20537;-88
2021/01/07 11:32:19;;;;;;;6.05;4.15;;;3.40;94.90;;;;;;5021793;28;20029;-89
2021/01/07 11:34:45;;;;;;;4.05;2.70;;;3.40;95.00;;;;;;5032211;28;20444;-89
2021/01/07 11:37:30;;;;;;;3.72;2.97;;;3.30;94.90;;;;;;5041251;28;20037;-89
2021/01/07 11:39:58;;;;;;;4.20;3.28;;;3.30;94.90;;;;;;5026045;28;20037;-89
2021/01/07 11:42:36;;;;;;;8.13;3.53;;;3.30;95.10;;;;;;5027607;28;20046;-88
2021/01/07 11:45:35;;;;;;;5.10;3.38;;;3.40;95.10;;;;;;5015594;28;20034;-88
2021/01/07 11:48:06;;;;;;;2.80;2.05;;;3.40;95.00;;;;;;5028969;28;20034;-88
2021/01/07 11:50:38;;;;;;;7.00;3.28;;;3.40;95.10;;;;;;5024040;28;20033;-88
2021/01/07 11:53:04;;;;;;;4.63;2.78;;;3.40;95.10;;;;;;5029194;28;20025;-88
2021/01/07 11:55:31;;;;;;;3.78;2.35;;;3.40;95.10;;;;;;5029791;28;20032;-88
2021/01/07 11:57:58;;;;;;;3.90;2.95;;;3.40;95.40;;;;;;5031021;28;20521;-88
2021/01/07 12:00:24;;;;;;;3.97;2.00;;;3.50;95.40;;;;;;5032731;28;20044;-88
2021/01/07 12:02:50;;;;;;;3.05;2.10;;;3.50;95.10;;;;;;5044624;28;20029;-88
2021/01/07 12:05:18;;;;;;;3.25;1.85;;;3.50;95.10;;;;;;5024147;28;20049;-90
2021/01/07 12:07:53;;;;;;;4.43;2.15;;;3.50;95.10;;;;;;5026540;28;20072;-88
2021/01/07 12:10:22;;;;;;;3.53;2.40;;;3.60;95.10;;;;;;5022238;28;20050;-88
2021/01/07 12:13:01;;;;;;;2.60;1.70;;;3.60;95.00;;;;;;5025941;28;20079;-88
2021/01/07 12:15:27;;;;;;;3.28;1.85;;;3.60;95.10;;;;;;5032786;28;20113;-87
2021/01/07 12:17:55;;;;;;;3.53;1.65;;;3.60;95.00;;;;;;5030234;28;20034;-88
2021/01/07 12:20:21;;;;;;;3.53;1.60;;;3.60;95.00;;;;;;5029159;28;20022;-88
2021/01/07 12:22:50;;;;;;;2.30;0.93;;;3.60;95.00;;;;;;5024567;28;20448;-88
2021/01/07 12:25:16;;;;;;;3.03;0.77;;;3.60;94.90;;;;;;5030982;28;20051;-88
2021/01/07 12:27:46;;;;;;;1.98;0.75;;;3.60;94.90;;;;;;5030875;28;20117;-88
2021/01/07 12:30:19;;;;;;;1.65;0.82;;;3.60;95.00;;;;;;5042809;28;20141;-88
2021/01/07 12:33:06;;;;;;;3.28;0.82;;;3.50;95.00;;;;;;5038255;28;20080;-88
2021/01/07 12:35:36;;;;;;;3.03;0.80;;;3.60;95.10;;;;;;5022105;28;20038;-88
2021/01/07 12:38:25;;;;;;;3.03;0.90;;;3.60;95.10;;;;;;5028583;28;20033;-88
2021/01/07 12:41:01;;;;;;;3.85;1.40;;;3.60;95.10;;;;;;5029826;28;20042;-88
2021/01/07 12:43:29;;;;;;;3.55;1.25;;;3.60;95.10;;;;;;5031795;28;20512;-88
2021/01/07 12:45:58;;;;;;;5.13;1.40;;;3.70;95.20;;;;;;5027412;28;20026;-88
2021/01/07 12:48:25;;;;;;;4.13;1.48;;;3.70;95.10;;;;;;5029575;28;20074;-88
2021/01/07 12:50:55;;;;;;;4.05;1.33;;;3.80;95.40;;;;;;5020805;28;20049;-89
2021/01/07 12:53:22;;;;;;;2.50;0.80;;;3.80;95.10;;;;;;5028978;28;20022;-88
2021/01/07 12:55:49;;;;;;;2.55;1.38;;;3.80;95.10;;;;;;5032253;28;20083;-88